sensor_id;sensor_type;location;lat;lon;timestamp;pressure;altitude;pressure_sealevel;temperature
69597;BMP180;56802;51.184;-115.558;2022-11-13T00:01:34;86371.60;;;-3.10
69597;BMP180;56802;51.184;-115.558;2022-11-13T00:04:03;86373.20;;;-3.10
69597;BMP180;56802;51.184;-115.558;2022-11-13T00:06:32;86368.80;;;-3.20
69597;BMP180;56802;51.184;-115.558;2022-11-13T00:09:02;86371.60;;;-3.30
69597;BMP180;56802;51.184;-115.558;2022-11-13T00:11:31;86377.00;;;-3.36
69597;BMP180;56802;51.184;-115.558;2022-11-13T00:14:00;86377.20;;;-3.40
69597;BMP180;56802;51.184;-115.558;2022-11-13T00:16:30;86383.60;;;-3.50
69597;BMP180;56802;51.184;-115.558;2022-11-13T00:18:59;86379.80;;;-3.60
69597;BMP180;56802;51.184;-115.558;2022-11-13T00:21:29;86381.80;;;-3.60
69597;BMP180;56802;51.184;-115.558;2022-11-13T00:23:58;86383.60;;;-3.70
69597;BMP180;56802;51.184;-115.558;2022-11-13T00:26:30;86390.80;;;-3.72
69597;BMP180;56802;51.184;-115.558;2022-11-13T00:29:02;86391.80;;;-3.80
69597;BMP180;56802;51.184;-115.558;2022-11-13T00:31:31;86398.00;;;-3.80
69597;BMP180;56802;51.184;-115.558;2022-11-13T00:34:01;86394.80;;;-3.90
69597;BMP180;56802;51.184;-115.558;2022-11-13T00:36:50;86397.60;;;-4.00
69597;BMP180;56802;51.184;-115.558;2022-11-13T00:39:19;86393.40;;;-4.02
69597;BMP180;56802;51.184;-115.558;2022-11-13T00:41:49;86405.40;;;-4.10
69597;BMP180;56802;51.184;-115.558;2022-11-13T00:44:18;86404.00;;;-4.10
69597;BMP180;56802;51.184;-115.558;2022-11-13T00:46:48;86409.00;;;-4.20
69597;BMP180;56802;51.184;-115.558;2022-11-13T00:49:17;86411.60;;;-4.20
69597;BMP180;56802;51.184;-115.558;2022-11-13T00:51:46;86417.00;;;-4.30
69597;BMP180;56802;51.184;-115.558;2022-11-13T00:54:16;86413.40;;;-4.40
69597;BMP180;56802;51.184;-115.558;2022-11-13T00:56:45;86421.00;;;-4.46
69597;BMP180;56802;51.184;-115.558;2022-11-13T00:59:14;86423.40;;;-4.50
69597;BMP180;56802;51.184;-115.558;2022-11-13T01:01:44;86416.60;;;-4.60
69597;BMP180;56802;51.184;-115.558;2022-11-13T01:04:13;86417.80;;;-4.70
69597;BMP180;56802;51.184;-115.558;2022-11-13T01:06:44;86420.20;;;-4.70
69597;BMP180;56802;51.184;-115.558;2022-11-13T01:09:14;86421.40;;;-4.80
69597;BMP180;56802;51.184;-115.558;2022-11-13T01:11:43;86422.80;;;-4.90
69597;BMP180;56802;51.184;-115.558;2022-11-13T01:14:12;86424.80;;;-4.92
69597;BMP180;56802;51.184;-115.558;2022-11-13T01:16:42;86425.80;;;-5.00
69597;BMP180;56802;51.184;-115.558;2022-11-13T01:19:11;86423.20;;;-5.00
69597;BMP180;56802;51.184;-115.558;2022-11-13T01:21:40;86423.60;;;-5.00
69597;BMP180;56802;51.184;-115.558;2022-11-13T01:24:10;86430.80;;;-5.00
69597;BMP180;56802;51.184;-115.558;2022-11-13T01:26:39;86436.40;;;-5.10
69597;BMP180;56802;51.184;-115.558;2022-11-13T01:29:09;86431.00;;;-5.20
69597;BMP180;56802;51.184;-115.558;2022-11-13T01:31:40;86433.40;;;-5.20
69597;BMP180;56802;51.184;-115.558;2022-11-13T01:34:10;86432.80;;;-5.22
69597;BMP180;56802;51.184;-115.558;2022-11-13T01:36:39;86438.60;;;-5.30
69597;BMP180;56802;51.184;-115.558;2022-11-13T01:39:11;86443.20;;;-5.30
69597;BMP180;56802;51.184;-115.558;2022-11-13T01:41:40;86440.40;;;-5.40
69597;BMP180;56802;51.184;-115.558;2022-11-13T01:44:16;86440.00;;;-5.40
69597;BMP180;56802;51.184;-115.558;2022-11-13T01:46:54;86442.60;;;-5.40
69597;BMP180;56802;51.184;-115.558;2022-11-13T01:49:37;86444.80;;;-5.40
69597;BMP180;56802;51.184;-115.558;2022-11-13T01:52:22;86449.60;;;-5.30
69597;BMP180;56802;51.184;-115.558;2022-11-13T01:55:15;86451.80;;;-5.20
69597;BMP180;56802;51.184;-115.558;2022-11-13T01:57:47;86451.20;;;-5.20
69597;BMP180;56802;51.184;-115.558;2022-11-13T02:00:16;86450.60;;;-5.20
69597;BMP180;56802;51.184;-115.558;2022-11-13T02:02:46;86452.80;;;-5.20
69597;BMP180;56802;51.184;-115.558;2022-11-13T02:05:15;86456.40;;;-5.20
69597;BMP180;56802;51.184;-115.558;2022-11-13T02:07:44;86453.40;;;-5.20
69597;BMP180;56802;51.184;-115.558;2022-11-13T02:10:15;86457.20;;;-5.20
69597;BMP180;56802;51.184;-115.558;2022-11-13T02:12:50;86457.00;;;-5.30
69597;BMP180;56802;51.184;-115.558;2022-11-13T02:15:24;86453.60;;;-5.30
69597;BMP180;56802;51.184;-115.558;2022-11-13T02:17:59;86458.20;;;-5.30
69597;BMP180;56802;51.184;-115.558;2022-11-13T02:21:15;86462.20;;;-5.30
69597;BMP180;56802;51.184;-115.558;2022-11-13T02:24:33;86463.20;;;-5.30
69597;BMP180;56802;51.184;-115.558;2022-11-13T02:27:33;86465.40;;;-5.40
69597;BMP180;56802;51.184;-115.558;2022-11-13T02:30:32;86464.40;;;-5.40
69597;BMP180;56802;51.184;-115.558;2022-11-13T02:33:26;86461.40;;;-5.40
69597;BMP180;56802;51.184;-115.558;2022-11-13T02:35:56;86466.80;;;-5.40
69597;BMP180;56802;51.184;-115.558;2022-11-13T02:38:26;86462.60;;;-5.50
69597;BMP180;56802;51.184;-115.558;2022-11-13T02:40:56;86467.40;;;-5.50
69597;BMP180;56802;51.184;-115.558;2022-11-13T02:43:25;86469.40;;;-5.60
69597;BMP180;56802;51.184;-115.558;2022-11-13T02:45:55;86472.60;;;-5.70
69597;BMP180;56802;51.184;-115.558;2022-11-13T02:48:24;86469.00;;;-5.70
69597;BMP180;56802;51.184;-115.558;2022-11-13T02:50:55;86472.00;;;-5.80
69597;BMP180;56802;51.184;-115.558;2022-11-13T02:53:25;86476.40;;;-5.80
69597;BMP180;56802;51.184;-115.558;2022-11-13T02:55:54;86477.60;;;-5.86
69597;BMP180;56802;51.184;-115.558;2022-11-13T02:58:24;86479.20;;;-5.90
69597;BMP180;56802;51.184;-115.558;2022-11-13T03:00:53;86485.40;;;-5.98
69597;BMP180;56802;51.184;-115.558;2022-11-13T03:03:23;86488.60;;;-6.00
69597;BMP180;56802;51.184;-115.558;2022-11-13T03:06:12;86485.20;;;-6.00
69597;BMP180;56802;51.184;-115.558;2022-11-13T03:08:41;86483.40;;;-6.00
69597;BMP180;56802;51.184;-115.558;2022-11-13T03:11:11;86485.20;;;-6.00
69597;BMP180;56802;51.184;-115.558;2022-11-13T03:13:40;86483.60;;;-6.10
69597;BMP180;56802;51.184;-115.558;2022-11-13T03:16:15;86475.40;;;-6.10
69597;BMP180;56802;51.184;-115.558;2022-11-13T03:18:45;86475.60;;;-6.20
69597;BMP180;56802;51.184;-115.558;2022-11-13T03:21:15;86477.80;;;-6.28
69597;BMP180;56802;51.184;-115.558;2022-11-13T03:23:44;86483.40;;;-6.40
69597;BMP180;56802;51.184;-115.558;2022-11-13T03:26:16;86478.40;;;-6.40
69597;BMP180;56802;51.184;-115.558;2022-11-13T03:28:45;86479.40;;;-6.48
69597;BMP180;56802;51.184;-115.558;2022-11-13T03:31:15;86480.60;;;-6.50
69597;BMP180;56802;51.184;-115.558;2022-11-13T03:33:44;86488.20;;;-6.54
69597;BMP180;56802;51.184;-115.558;2022-11-13T03:36:14;86489.00;;;-6.60
69597;BMP180;56802;51.184;-115.558;2022-11-13T03:38:43;86495.40;;;-6.70
69597;BMP180;56802;51.184;-115.558;2022-11-13T03:41:13;86499.60;;;-6.76
69597;BMP180;56802;51.184;-115.558;2022-11-13T03:43:43;86492.20;;;-6.80
69597;BMP180;56802;51.184;-115.558;2022-11-13T03:46:12;86499.20;;;-6.80
69597;BMP180;56802;51.184;-115.558;2022-11-13T03:48:42;86492.80;;;-6.80
69597;BMP180;56802;51.184;-115.558;2022-11-13T03:51:12;86497.20;;;-6.90
69597;BMP180;56802;51.184;-115.558;2022-11-13T03:53:41;86500.00;;;-6.90
69597;BMP180;56802;51.184;-115.558;2022-11-13T03:56:11;86499.60;;;-6.94
69597;BMP180;56802;51.184;-115.558;2022-11-13T03:58:40;86494.80;;;-6.90
69597;BMP180;56802;51.184;-115.558;2022-11-13T04:01:16;86490.20;;;-7.00
69597;BMP180;56802;51.184;-115.558;2022-11-13T04:03:45;86491.60;;;-7.04
69597;BMP180;56802;51.184;-115.558;2022-11-13T04:06:15;86496.20;;;-7.10
69597;BMP180;56802;51.184;-115.558;2022-11-13T04:08:44;86487.80;;;-7.10
69597;BMP180;56802;51.184;-115.558;2022-11-13T04:11:15;86493.00;;;-7.20
69597;BMP180;56802;51.184;-115.558;2022-11-13T04:13:44;86503.80;;;-7.28
69597;BMP180;56802;51.184;-115.558;2022-11-13T04:16:13;86503.40;;;-7.30
69597;BMP180;56802;51.184;-115.558;2022-11-13T04:18:43;86505.20;;;-7.40
69597;BMP180;56802;51.184;-115.558;2022-11-13T04:21:12;86506.80;;;-7.38
69597;BMP180;56802;51.184;-115.558;2022-11-13T04:23:42;86509.80;;;-7.38
69597;BMP180;56802;51.184;-115.558;2022-11-13T04:26:11;86512.40;;;-7.40
69597;BMP180;56802;51.184;-115.558;2022-11-13T04:28:41;86514.20;;;-7.40
69597;BMP180;56802;51.184;-115.558;2022-11-13T04:31:10;86514.80;;;-7.36
69597;BMP180;56802;51.184;-115.558;2022-11-13T04:33:40;86520.00;;;-7.40
69597;BMP180;56802;51.184;-115.558;2022-11-13T04:36:09;86515.40;;;-7.40
69597;BMP180;56802;51.184;-115.558;2022-11-13T04:38:39;86519.00;;;-7.40
69597;BMP180;56802;51.184;-115.558;2022-11-13T04:41:12;86516.80;;;-7.40
69597;BMP180;56802;51.184;-115.558;2022-11-13T04:44:00;86515.40;;;-7.46
69597;BMP180;56802;51.184;-115.558;2022-11-13T04:46:29;86519.60;;;-7.50
69597;BMP180;56802;51.184;-115.558;2022-11-13T04:48:59;86522.40;;;-7.42
69597;BMP180;56802;51.184;-115.558;2022-11-13T04:51:28;86527.20;;;-7.40
69597;BMP180;56802;51.184;-115.558;2022-11-13T04:53:58;86526.00;;;-7.50
69597;BMP180;56802;51.184;-115.558;2022-11-13T04:56:28;86534.00;;;-7.60
69597;BMP180;56802;51.184;-115.558;2022-11-13T04:58:57;86538.60;;;-7.70
69597;BMP180;56802;51.184;-115.558;2022-11-13T05:01:27;86542.60;;;-7.80
69597;BMP180;56802;51.184;-115.558;2022-11-13T05:03:56;86542.20;;;-7.90
69597;BMP180;56802;51.184;-115.558;2022-11-13T05:06:26;86547.80;;;-8.00
69597;BMP180;56802;51.184;-115.558;2022-11-13T05:08:55;86549.20;;;-8.00
69597;BMP180;56802;51.184;-115.558;2022-11-13T05:11:25;86552.00;;;-8.00
69597;BMP180;56802;51.184;-115.558;2022-11-13T05:13:54;86555.00;;;-8.00
69597;BMP180;56802;51.184;-115.558;2022-11-13T05:16:30;86560.60;;;-8.00
69597;BMP180;56802;51.184;-115.558;2022-11-13T05:18:59;86566.60;;;-8.10
69597;BMP180;56802;51.184;-115.558;2022-11-13T05:21:29;86572.60;;;-8.10
69597;BMP180;56802;51.184;-115.558;2022-11-13T05:23:58;86572.40;;;-8.10
69597;BMP180;56802;51.184;-115.558;2022-11-13T05:26:28;86573.20;;;-8.10
69597;BMP180;56802;51.184;-115.558;2022-11-13T05:28:59;86576.00;;;-8.20
69597;BMP180;56802;51.184;-115.558;2022-11-13T05:31:28;86578.40;;;-8.28
69597;BMP180;56802;51.184;-115.558;2022-11-13T05:33:58;86572.60;;;-8.30
69597;BMP180;56802;51.184;-115.558;2022-11-13T05:36:33;86576.40;;;-8.30
69597;BMP180;56802;51.184;-115.558;2022-11-13T05:39:03;86574.60;;;-8.30
69597;BMP180;56802;51.184;-115.558;2022-11-13T05:41:33;86581.60;;;-8.30
69597;BMP180;56802;51.184;-115.558;2022-11-13T05:44:02;86580.80;;;-8.40
69597;BMP180;56802;51.184;-115.558;2022-11-13T05:46:32;86582.40;;;-8.48
69597;BMP180;56802;51.184;-115.558;2022-11-13T05:49:02;86583.20;;;-8.50
69597;BMP180;56802;51.184;-115.558;2022-11-13T05:51:33;86584.60;;;-8.60
69597;BMP180;56802;51.184;-115.558;2022-11-13T05:54:02;86586.20;;;-8.60
69597;BMP180;56802;51.184;-115.558;2022-11-13T05:56:35;86587.60;;;-8.60
69597;BMP180;56802;51.184;-115.558;2022-11-13T05:59:05;86584.60;;;-8.60
69597;BMP180;56802;51.184;-115.558;2022-11-13T06:01:38;86585.60;;;-8.58
69597;BMP180;56802;51.184;-115.558;2022-11-13T06:04:09;86583.20;;;-8.60
69597;BMP180;56802;51.184;-115.558;2022-11-13T06:06:38;86576.20;;;-8.68
69597;BMP180;56802;51.184;-115.558;2022-11-13T06:09:12;86578.40;;;-8.66
69597;BMP180;56802;51.184;-115.558;2022-11-13T06:11:43;86581.80;;;-8.70
69597;BMP180;56802;51.184;-115.558;2022-11-13T06:14:13;86578.40;;;-8.80
69597;BMP180;56802;51.184;-115.558;2022-11-13T06:16:42;86578.40;;;-8.90
69597;BMP180;56802;51.184;-115.558;2022-11-13T06:19:12;86582.60;;;-8.96
69597;BMP180;56802;51.184;-115.558;2022-11-13T06:21:41;86579.40;;;-9.00
69597;BMP180;56802;51.184;-115.558;2022-11-13T06:24:12;86581.20;;;-9.00
69597;BMP180;56802;51.184;-115.558;2022-11-13T06:26:42;86590.60;;;-9.08
69597;BMP180;56802;51.184;-115.558;2022-11-13T06:29:12;86586.20;;;-9.10
69597;BMP180;56802;51.184;-115.558;2022-11-13T06:31:41;86585.00;;;-9.14
69597;BMP180;56802;51.184;-115.558;2022-11-13T06:34:10;86583.80;;;-9.18
69597;BMP180;56802;51.184;-115.558;2022-11-13T06:36:39;86589.80;;;-9.20
69597;BMP180;56802;51.184;-115.558;2022-11-13T06:39:10;86588.40;;;-9.20
69597;BMP180;56802;51.184;-115.558;2022-11-13T06:41:40;86588.80;;;-9.20
69597;BMP180;56802;51.184;-115.558;2022-11-13T06:44:09;86590.20;;;-9.30
69597;BMP180;56802;51.184;-115.558;2022-11-13T06:46:38;86595.80;;;-9.30
69597;BMP180;56802;51.184;-115.558;2022-11-13T06:49:08;86594.20;;;-9.38
69597;BMP180;56802;51.184;-115.558;2022-11-13T06:51:37;86602.60;;;-9.40
69597;BMP180;56802;51.184;-115.558;2022-11-13T06:54:07;86597.20;;;-9.40
69597;BMP180;56802;51.184;-115.558;2022-11-13T06:56:37;86602.40;;;-9.50
69597;BMP180;56802;51.184;-115.558;2022-11-13T06:59:12;86602.40;;;-9.46
69597;BMP180;56802;51.184;-115.558;2022-11-13T07:01:42;86600.00;;;-9.48
69597;BMP180;56802;51.184;-115.558;2022-11-13T07:04:12;86598.80;;;-9.48
69597;BMP180;56802;51.184;-115.558;2022-11-13T07:06:41;86598.20;;;-9.40
69597;BMP180;56802;51.184;-115.558;2022-11-13T07:09:11;86597.60;;;-9.40
69597;BMP180;56802;51.184;-115.558;2022-11-13T07:11:40;86598.00;;;-9.40
69597;BMP180;56802;51.184;-115.558;2022-11-13T07:14:12;86598.20;;;-9.40
69597;BMP180;56802;51.184;-115.558;2022-11-13T07:16:41;86598.60;;;-9.48
69597;BMP180;56802;51.184;-115.558;2022-11-13T07:19:30;86604.20;;;-9.54
69597;BMP180;56802;51.184;-115.558;2022-11-13T07:22:00;86611.00;;;-9.60
69597;BMP180;56802;51.184;-115.558;2022-11-13T07:24:29;86610.60;;;-9.60
69597;BMP180;56802;51.184;-115.558;2022-11-13T07:26:58;86620.60;;;-9.70
69597;BMP180;56802;51.184;-115.558;2022-11-13T07:29:27;86612.80;;;-9.60
69597;BMP180;56802;51.184;-115.558;2022-11-13T07:31:57;86614.60;;;-9.60
69597;BMP180;56802;51.184;-115.558;2022-11-13T07:34:26;86621.60;;;-9.60
69597;BMP180;56802;51.184;-115.558;2022-11-13T07:36:55;86629.60;;;-9.62
69597;BMP180;56802;51.184;-115.558;2022-11-13T07:39:25;86620.60;;;-9.64
69597;BMP180;56802;51.184;-115.558;2022-11-13T07:41:54;86629.20;;;-9.62
69597;BMP180;56802;51.184;-115.558;2022-11-13T07:44:24;86627.40;;;-9.68
69597;BMP180;56802;51.184;-115.558;2022-11-13T07:47:13;86632.20;;;-9.60
69597;BMP180;56802;51.184;-115.558;2022-11-13T07:49:42;86631.80;;;-9.62
69597;BMP180;56802;51.184;-115.558;2022-11-13T07:52:11;86633.00;;;-9.66
69597;BMP180;56802;51.184;-115.558;2022-11-13T07:54:40;86630.00;;;-9.70
69597;BMP180;56802;51.184;-115.558;2022-11-13T07:57:10;86632.40;;;-9.70
69597;BMP180;56802;51.184;-115.558;2022-11-13T07:59:40;86627.60;;;-9.70
69597;BMP180;56802;51.184;-115.558;2022-11-13T08:02:15;86634.00;;;-9.70
69597;BMP180;56802;51.184;-115.558;2022-11-13T08:04:50;86630.80;;;-9.70
69597;BMP180;56802;51.184;-115.558;2022-11-13T08:07:19;86630.60;;;-9.74
69597;BMP180;56802;51.184;-115.558;2022-11-13T08:09:48;86629.80;;;-9.80
69597;BMP180;56802;51.184;-115.558;2022-11-13T08:12:18;86631.20;;;-9.82
69597;BMP180;56802;51.184;-115.558;2022-11-13T08:14:47;86636.80;;;-9.86
69597;BMP180;56802;51.184;-115.558;2022-11-13T08:17:16;86641.40;;;-9.90
69597;BMP180;56802;51.184;-115.558;2022-11-13T08:19:46;86648.60;;;-9.90
69597;BMP180;56802;51.184;-115.558;2022-11-13T08:22:16;86649.40;;;-10.00
69597;BMP180;56802;51.184;-115.558;2022-11-13T08:24:45;86647.60;;;-10.00
69597;BMP180;56802;51.184;-115.558;2022-11-13T08:27:14;86647.80;;;-10.06
69597;BMP180;56802;51.184;-115.558;2022-11-13T08:29:44;86656.00;;;-10.04
69597;BMP180;56802;51.184;-115.558;2022-11-13T08:32:18;86653.40;;;-10.10
69597;BMP180;56802;51.184;-115.558;2022-11-13T08:34:47;86655.40;;;-10.20
69597;BMP180;56802;51.184;-115.558;2022-11-13T08:37:17;86654.40;;;-10.22
69597;BMP180;56802;51.184;-115.558;2022-11-13T08:39:47;86658.60;;;-10.30
69597;BMP180;56802;51.184;-115.558;2022-11-13T08:42:16;86663.40;;;-10.36
69597;BMP180;56802;51.184;-115.558;2022-11-13T08:44:46;86666.40;;;-10.40
69597;BMP180;56802;51.184;-115.558;2022-11-13T08:47:15;86666.00;;;-10.40
69597;BMP180;56802;51.184;-115.558;2022-11-13T08:49:44;86664.80;;;-10.44
69597;BMP180;56802;51.184;-115.558;2022-11-13T08:52:14;86666.60;;;-10.50
69597;BMP180;56802;51.184;-115.558;2022-11-13T08:54:43;86675.00;;;-10.50
69597;BMP180;56802;51.184;-115.558;2022-11-13T08:57:14;86674.60;;;-10.50
69597;BMP180;56802;51.184;-115.558;2022-11-13T08:59:43;86669.80;;;-10.50
69597;BMP180;56802;51.184;-115.558;2022-11-13T09:02:14;86678.20;;;-10.50
69597;BMP180;56802;51.184;-115.558;2022-11-13T09:04:44;86677.00;;;-10.50
69597;BMP180;56802;51.184;-115.558;2022-11-13T09:07:13;86681.80;;;-10.50
69597;BMP180;56802;51.184;-115.558;2022-11-13T09:09:43;86682.20;;;-10.46
69597;BMP180;56802;51.184;-115.558;2022-11-13T09:12:12;86682.40;;;-10.40
69597;BMP180;56802;51.184;-115.558;2022-11-13T09:14:41;86688.00;;;-10.40
69597;BMP180;56802;51.184;-115.558;2022-11-13T09:17:10;86691.40;;;-10.40
69597;BMP180;56802;51.184;-115.558;2022-11-13T09:19:40;86693.60;;;-10.40
69597;BMP180;56802;51.184;-115.558;2022-11-13T09:22:11;86690.40;;;-10.40
69597;BMP180;56802;51.184;-115.558;2022-11-13T09:24:40;86694.00;;;-10.40
69597;BMP180;56802;51.184;-115.558;2022-11-13T09:27:10;86695.80;;;-10.40
69597;BMP180;56802;51.184;-115.558;2022-11-13T09:29:40;86692.00;;;-10.40
69597;BMP180;56802;51.184;-115.558;2022-11-13T09:32:10;86689.20;;;-10.40
69597;BMP180;56802;51.184;-115.558;2022-11-13T09:34:39;86696.80;;;-10.50
69597;BMP180;56802;51.184;-115.558;2022-11-13T09:37:09;86700.20;;;-10.50
69597;BMP180;56802;51.184;-115.558;2022-11-13T09:39:38;86697.40;;;-10.50
69597;BMP180;56802;51.184;-115.558;2022-11-13T09:42:16;86700.00;;;-10.50
69597;BMP180;56802;51.184;-115.558;2022-11-13T09:45:02;86701.80;;;-10.40
69597;BMP180;56802;51.184;-115.558;2022-11-13T09:47:45;86704.20;;;-10.48
69597;BMP180;56802;51.184;-115.558;2022-11-13T09:50:28;86709.00;;;-10.46
69597;BMP180;56802;51.184;-115.558;2022-11-13T09:52:59;86708.20;;;-10.40
69597;BMP180;56802;51.184;-115.558;2022-11-13T09:55:37;86718.20;;;-10.40
69597;BMP180;56802;51.184;-115.558;2022-11-13T09:58:44;86716.20;;;-10.40
69597;BMP180;56802;51.184;-115.558;2022-11-13T10:08:06;86719.40;;;-10.50
69597;BMP180;56802;51.184;-115.558;2022-11-13T10:13:43;86726.40;;;-10.50
69597;BMP180;56802;51.184;-115.558;2022-11-13T10:16:48;86733.60;;;-10.60
69597;BMP180;56802;51.184;-115.558;2022-11-13T10:19:54;86742.20;;;-10.60
69597;BMP180;56802;51.184;-115.558;2022-11-13T10:25:20;86744.60;;;-10.74
69597;BMP180;56802;51.184;-115.558;2022-11-13T10:27:58;86747.60;;;-10.72
69597;BMP180;56802;51.184;-115.558;2022-11-13T10:30:49;86747.80;;;-10.72
69597;BMP180;56802;51.184;-115.558;2022-11-13T10:33:21;86750.00;;;-10.80
69597;BMP180;56802;51.184;-115.558;2022-11-13T10:36:31;86755.60;;;-10.76
69597;BMP180;56802;51.184;-115.558;2022-11-13T10:39:08;86759.60;;;-10.76
69597;BMP180;56802;51.184;-115.558;2022-11-13T10:41:54;86760.60;;;-10.70
69597;BMP180;56802;51.184;-115.558;2022-11-13T10:44:31;86761.00;;;-10.70
69597;BMP180;56802;51.184;-115.558;2022-11-13T10:47:18;86757.80;;;-10.62
69597;BMP180;56802;51.184;-115.558;2022-11-13T10:50:40;86762.60;;;-10.60
69597;BMP180;56802;51.184;-115.558;2022-11-13T10:53:19;86764.80;;;-10.60
69597;BMP180;56802;51.184;-115.558;2022-11-13T10:55:55;86772.80;;;-10.60
69597;BMP180;56802;51.184;-115.558;2022-11-13T10:58:25;86767.20;;;-10.60
69597;BMP180;56802;51.184;-115.558;2022-11-13T11:00:55;86759.80;;;-10.60
69597;BMP180;56802;51.184;-115.558;2022-11-13T11:03:25;86767.40;;;-10.60
69597;BMP180;56802;51.184;-115.558;2022-11-13T11:06:00;86776.80;;;-10.60
69597;BMP180;56802;51.184;-115.558;2022-11-13T11:08:34;86785.60;;;-10.60
69597;BMP180;56802;51.184;-115.558;2022-11-13T11:11:16;86783.60;;;-10.70
69597;BMP180;56802;51.184;-115.558;2022-11-13T11:14:21;86784.60;;;-10.66
69597;BMP180;56802;51.184;-115.558;2022-11-13T11:16:53;86792.00;;;-10.70
69597;BMP180;56802;51.184;-115.558;2022-11-13T11:19:28;86793.40;;;-10.70
69597;BMP180;56802;51.184;-115.558;2022-11-13T11:22:14;86793.60;;;-10.70
69597;BMP180;56802;51.184;-115.558;2022-11-13T11:25:05;86795.20;;;-10.80
69597;BMP180;56802;51.184;-115.558;2022-11-13T11:27:51;86794.40;;;-10.90
69597;BMP180;56802;51.184;-115.558;2022-11-13T11:30:30;86804.00;;;-10.90
69597;BMP180;56802;51.184;-115.558;2022-11-13T11:33:16;86801.60;;;-11.00
69597;BMP180;56802;51.184;-115.558;2022-11-13T11:41:50;86803.40;;;-11.10
69597;BMP180;56802;51.184;-115.558;2022-11-13T11:44:43;86802.60;;;-11.10
69597;BMP180;56802;51.184;-115.558;2022-11-13T11:47:17;86799.00;;;-11.10
69597;BMP180;56802;51.184;-115.558;2022-11-13T11:49:46;86799.60;;;-11.16
69597;BMP180;56802;51.184;-115.558;2022-11-13T11:55:54;86802.00;;;-11.20
69597;BMP180;56802;51.184;-115.558;2022-11-13T11:58:30;86813.20;;;-11.20
69597;BMP180;56802;51.184;-115.558;2022-11-13T12:01:29;86820.60;;;-11.20
69597;BMP180;56802;51.184;-115.558;2022-11-13T12:15:53;86830.80;;;-11.20
69597;BMP180;56802;51.184;-115.558;2022-11-13T12:18:43;86831.80;;;-11.20
69597;BMP180;56802;51.184;-115.558;2022-11-13T12:25:36;86833.00;;;-11.30
69597;BMP180;56802;51.184;-115.558;2022-11-13T12:34:49;86837.60;;;-11.20
69597;BMP180;56802;51.184;-115.558;2022-11-13T12:46:21;86833.20;;;-11.20
69597;BMP180;56802;51.184;-115.558;2022-11-13T12:49:01;86840.60;;;-11.20
69597;BMP180;56802;51.184;-115.558;2022-11-13T12:51:40;86834.00;;;-11.20
69597;BMP180;56802;51.184;-115.558;2022-11-13T12:54:35;86825.60;;;-11.12
69597;BMP180;56802;51.184;-115.558;2022-11-13T12:57:31;86831.40;;;-11.10
69597;BMP180;56802;51.184;-115.558;2022-11-13T13:00:27;86828.60;;;-11.10
69597;BMP180;56802;51.184;-115.558;2022-11-13T13:06:29;86834.80;;;-11.10
69597;BMP180;56802;51.184;-115.558;2022-11-13T13:17:39;86836.80;;;-11.10
69597;BMP180;56802;51.184;-115.558;2022-11-13T13:22:55;86827.60;;;-11.10
69597;BMP180;56802;51.184;-115.558;2022-11-13T13:25:35;86835.80;;;-11.02
69597;BMP180;56802;51.184;-115.558;2022-11-13T13:28:24;86838.00;;;-11.00
69597;BMP180;56802;51.184;-115.558;2022-11-13T13:31:21;86834.20;;;-10.98
69597;BMP180;56802;51.184;-115.558;2022-11-13T13:34:36;86838.20;;;-10.90
69597;BMP180;56802;51.184;-115.558;2022-11-13T13:37:50;86840.80;;;-10.90
69597;BMP180;56802;51.184;-115.558;2022-11-13T13:46:18;86839.80;;;-10.90
69597;BMP180;56802;51.184;-115.558;2022-11-13T13:48:53;86843.00;;;-10.90
69597;BMP180;56802;51.184;-115.558;2022-11-13T13:51:33;86847.20;;;-10.90
69597;BMP180;56802;51.184;-115.558;2022-11-13T13:54:07;86853.20;;;-10.92
69597;BMP180;56802;51.184;-115.558;2022-11-13T13:56:40;86853.40;;;-11.00
69597;BMP180;56802;51.184;-115.558;2022-11-13T13:59:35;86843.20;;;-11.00
69597;BMP180;56802;51.184;-115.558;2022-11-13T14:02:17;86856.20;;;-11.06
69597;BMP180;56802;51.184;-115.558;2022-11-13T14:04:50;86871.40;;;-11.06
69597;BMP180;56802;51.184;-115.558;2022-11-13T14:07:25;86863.00;;;-11.10
69597;BMP180;56802;51.184;-115.558;2022-11-13T14:12:43;86859.20;;;-11.10
69597;BMP180;56802;51.184;-115.558;2022-11-13T14:15:30;86855.60;;;-11.20
69597;BMP180;56802;51.184;-115.558;2022-11-13T14:18:14;86844.60;;;-11.20
69597;BMP180;56802;51.184;-115.558;2022-11-13T14:20:57;86837.60;;;-11.20
69597;BMP180;56802;51.184;-115.558;2022-11-13T14:23:56;86832.80;;;-11.26
69597;BMP180;56802;51.184;-115.558;2022-11-13T14:26:29;86841.00;;;-11.20
69597;BMP180;56802;51.184;-115.558;2022-11-13T14:29:01;86839.80;;;-11.20
69597;BMP180;56802;51.184;-115.558;2022-11-13T14:31:34;86847.00;;;-11.20
69597;BMP180;56802;51.184;-115.558;2022-11-13T14:34:21;86852.20;;;-11.14
69597;BMP180;56802;51.184;-115.558;2022-11-13T14:36:51;86858.60;;;-11.16
69597;BMP180;56802;51.184;-115.558;2022-11-13T14:39:27;86860.80;;;-11.16
69597;BMP180;56802;51.184;-115.558;2022-11-13T14:41:59;86861.20;;;-11.20
69597;BMP180;56802;51.184;-115.558;2022-11-13T14:44:32;86854.60;;;-11.20
69597;BMP180;56802;51.184;-115.558;2022-11-13T14:47:05;86847.80;;;-11.20
69597;BMP180;56802;51.184;-115.558;2022-11-13T14:49:48;86851.80;;;-11.10
69597;BMP180;56802;51.184;-115.558;2022-11-13T14:52:26;86847.40;;;-11.10
69597;BMP180;56802;51.184;-115.558;2022-11-13T14:55:05;86855.00;;;-11.00
69597;BMP180;56802;51.184;-115.558;2022-11-13T14:57:49;86852.80;;;-11.00
69597;BMP180;56802;51.184;-115.558;2022-11-13T15:00:28;86854.40;;;-10.92
69597;BMP180;56802;51.184;-115.558;2022-11-13T15:03:01;86851.60;;;-10.92
69597;BMP180;56802;51.184;-115.558;2022-11-13T15:05:30;86853.20;;;-11.00
69597;BMP180;56802;51.184;-115.558;2022-11-13T15:08:01;86856.00;;;-11.10
69597;BMP180;56802;51.184;-115.558;2022-11-13T15:10:31;86863.20;;;-11.10
69597;BMP180;56802;51.184;-115.558;2022-11-13T15:13:00;86859.80;;;-11.10
69597;BMP180;56802;51.184;-115.558;2022-11-13T15:15:30;86869.60;;;-11.20
69597;BMP180;56802;51.184;-115.558;2022-11-13T15:18:01;86875.60;;;-11.20
69597;BMP180;56802;51.184;-115.558;2022-11-13T15:20:31;86874.20;;;-11.30
69597;BMP180;56802;51.184;-115.558;2022-11-13T15:23:00;86876.80;;;-11.32
69597;BMP180;56802;51.184;-115.558;2022-11-13T15:25:30;86883.20;;;-11.40